sensor_id;sensor_type;location;lat;lon;timestamp;P1;durP1;ratioP1;P2;durP2;ratioP2
48534;SDS011;34323;52.022;5.686;2022-08-11T00:00:19;4.78;;;2.10;;
48534;SDS011;34323;52.022;5.686;2022-08-11T00:02:46;12.98;;;2.72;;
48534;SDS011;34323;52.022;5.686;2022-08-11T00:05:16;7.20;;;2.00;;
48534;SDS011;34323;52.022;5.686;2022-08-11T00:07:45;3.15;;;1.83;;
48534;SDS011;34323;52.022;5.686;2022-08-11T00:10:15;3.58;;;2.33;;
48534;SDS011;34323;52.022;5.686;2022-08-11T00:12:42;5.93;;;1.95;;
48534;SDS011;34323;52.022;5.686;2022-08-11T00:15:14;4.15;;;2.10;;
48534;SDS011;34323;52.022;5.686;2022-08-11T00:17:40;6.00;;;2.30;;
48534;SDS011;34323;52.022;5.686;2022-08-11T00:20:09;8.95;;;2.45;;
48534;SDS011;34323;52.022;5.686;2022-08-11T00:22:37;10.32;;;2.72;;
48534;SDS011;34323;52.022;5.686;2022-08-11T00:25:13;5.97;;;2.50;;
48534;SDS011;34323;52.022;5.686;2022-08-11T00:27:43;7.28;;;2.85;;
48534;SDS011;34323;52.022;5.686;2022-08-11T00:30:11;6.05;;;2.70;;
48534;SDS011;34323;52.022;5.686;2022-08-11T00:32:38;6.25;;;2.65;;
48534;SDS011;34323;52.022;5.686;2022-08-11T00:35:07;5.30;;;2.63;;
48534;SDS011;34323;52.022;5.686;2022-08-11T00:37:37;9.45;;;2.55;;
48534;SDS011;34323;52.022;5.686;2022-08-11T00:40:04;4.15;;;2.40;;
48534;SDS011;34323;52.022;5.686;2022-08-11T00:42:47;4.63;;;2.00;;
48534;SDS011;34323;52.022;5.686;2022-08-11T00:45:26;6.38;;;2.15;;
48534;SDS011;34323;52.022;5.686;2022-08-11T00:48:46;4.55;;;2.25;;
48534;SDS011;34323;52.022;5.686;2022-08-11T00:52:28;8.23;;;2.53;;
48534;SDS011;34323;52.022;5.686;2022-08-11T01:00:15;3.92;;;2.30;;
48534;SDS011;34323;52.022;5.686;2022-08-11T01:13:59;6.15;;;2.22;;
48534;SDS011;34323;52.022;5.686;2022-08-11T01:18:09;4.95;;;2.63;;
48534;SDS011;34323;52.022;5.686;2022-08-11T01:20:32;4.05;;;2.28;;
48534;SDS011;34323;52.022;5.686;2022-08-11T01:57:09;2.80;;;2.28;;
48534;SDS011;34323;52.022;5.686;2022-08-11T01:59:28;3.53;;;2.65;;
48534;SDS011;34323;52.022;5.686;2022-08-11T02:05:13;3.75;;;2.17;;
48534;SDS011;34323;52.022;5.686;2022-08-11T02:07:57;4.68;;;2.20;;
48534;SDS011;34323;52.022;5.686;2022-08-11T02:16:36;3.97;;;2.00;;
48534;SDS011;34323;52.022;5.686;2022-08-11T02:34:04;11.32;;;2.40;;
48534;SDS011;34323;52.022;5.686;2022-08-11T02:36:41;4.45;;;2.10;;
48534;SDS011;34323;52.022;5.686;2022-08-11T02:39:16;8.95;;;2.38;;
48534;SDS011;34323;52.022;5.686;2022-08-11T02:50:46;2.67;;;1.98;;
48534;SDS011;34323;52.022;5.686;2022-08-11T02:56:13;7.85;;;1.98;;
48534;SDS011;34323;52.022;5.686;2022-08-11T02:59:03;4.78;;;1.98;;
48534;SDS011;34323;52.022;5.686;2022-08-11T03:01:57;3.33;;;2.42;;
48534;SDS011;34323;52.022;5.686;2022-08-11T03:04:29;5.95;;;2.40;;
48534;SDS011;34323;52.022;5.686;2022-08-11T03:07:14;6.28;;;2.88;;
48534;SDS011;34323;52.022;5.686;2022-08-11T03:09:54;2.70;;;1.88;;
48534;SDS011;34323;52.022;5.686;2022-08-11T03:12:32;4.93;;;2.15;;
48534;SDS011;34323;52.022;5.686;2022-08-11T03:15:40;3.55;;;1.90;;
48534;SDS011;34323;52.022;5.686;2022-08-11T03:19:07;5.15;;;2.10;;
48534;SDS011;34323;52.022;5.686;2022-08-11T03:21:45;3.50;;;2.08;;
48534;SDS011;34323;52.022;5.686;2022-08-11T03:24:23;7.82;;;2.47;;
48534;SDS011;34323;52.022;5.686;2022-08-11T03:27:06;3.20;;;2.40;;
48534;SDS011;34323;52.022;5.686;2022-08-11T03:30:04;6.55;;;2.45;;
48534;SDS011;34323;52.022;5.686;2022-08-11T03:32:36;3.05;;;2.08;;
48534;SDS011;34323;52.022;5.686;2022-08-11T03:35:41;3.97;;;2.20;;
48534;SDS011;34323;52.022;5.686;2022-08-11T03:38:27;6.07;;;2.38;;
48534;SDS011;34323;52.022;5.686;2022-08-11T03:41:33;6.88;;;2.42;;
48534;SDS011;34323;52.022;5.686;2022-08-11T03:44:22;10.95;;;2.78;;
48534;SDS011;34323;52.022;5.686;2022-08-11T03:49:44;6.03;;;2.60;;
48534;SDS011;34323;52.022;5.686;2022-08-11T03:52:36;4.00;;;2.53;;
48534;SDS011;34323;52.022;5.686;2022-08-11T04:03:39;25.13;;;4.05;;
48534;SDS011;34323;52.022;5.686;2022-08-11T04:09:00;10.70;;;2.88;;
48534;SDS011;34323;52.022;5.686;2022-08-11T04:29:31;10.88;;;2.38;;
48534;SDS011;34323;52.022;5.686;2022-08-11T04:32:03;15.25;;;4.00;;
48534;SDS011;34323;52.022;5.686;2022-08-11T04:46:11;8.07;;;3.03;;
48534;SDS011;34323;52.022;5.686;2022-08-11T04:48:50;10.20;;;3.45;;
48534;SDS011;34323;52.022;5.686;2022-08-11T05:01:39;6.85;;;2.72;;
48534;SDS011;34323;52.022;5.686;2022-08-11T05:04:34;45.95;;;4.63;;
48534;SDS011;34323;52.022;5.686;2022-08-11T05:07:49;115.57;;;12.80;;
48534;SDS011;34323;52.022;5.686;2022-08-11T05:11:34;65.13;;;10.52;;
48534;SDS011;34323;52.022;5.686;2022-08-11T05:13:45;66.93;;;7.25;;
48534;SDS011;34323;52.022;5.686;2022-08-11T05:19:32;22.67;;;4.75;;
48534;SDS011;34323;52.022;5.686;2022-08-11T05:22:17;12.63;;;3.05;;
48534;SDS011;34323;52.022;5.686;2022-08-11T05:25:06;7.25;;;2.72;;
48534;SDS011;34323;52.022;5.686;2022-08-11T05:28:13;14.27;;;2.97;;
48534;SDS011;34323;52.022;5.686;2022-08-11T05:31:11;4.32;;;2.47;;
48534;SDS011;34323;52.022;5.686;2022-08-11T05:33:58;5.60;;;3.05;;
48534;SDS011;34323;52.022;5.686;2022-08-11T05:36:54;4.25;;;2.38;;
48534;SDS011;34323;52.022;5.686;2022-08-11T05:39:27;9.45;;;2.72;;
48534;SDS011;34323;52.022;5.686;2022-08-11T05:42:13;4.20;;;2.50;;
48534;SDS011;34323;52.022;5.686;2022-08-11T05:45:02;5.13;;;2.50;;
48534;SDS011;34323;52.022;5.686;2022-08-11T05:47:51;6.57;;;2.70;;
48534;SDS011;34323;52.022;5.686;2022-08-11T05:50:36;7.32;;;2.95;;
48534;SDS011;34323;52.022;5.686;2022-08-11T05:53:22;5.90;;;2.80;;
48534;SDS011;34323;52.022;5.686;2022-08-11T05:56:07;8.90;;;2.58;;
48534;SDS011;34323;52.022;5.686;2022-08-11T05:58:44;4.07;;;2.63;;
48534;SDS011;34323;52.022;5.686;2022-08-11T06:01:26;4.43;;;2.95;;
48534;SDS011;34323;52.022;5.686;2022-08-11T06:03:55;8.23;;;2.80;;
48534;SDS011;34323;52.022;5.686;2022-08-11T06:06:56;5.78;;;2.83;;
48534;SDS011;34323;52.022;5.686;2022-08-11T06:09:30;13.00;;;3.53;;
48534;SDS011;34323;52.022;5.686;2022-08-11T06:12:00;16.75;;;4.60;;
48534;SDS011;34323;52.022;5.686;2022-08-11T06:14:40;25.13;;;7.38;;
48534;SDS011;34323;52.022;5.686;2022-08-11T06:17:08;55.72;;;12.10;;
48534;SDS011;34323;52.022;5.686;2022-08-11T06:19:35;98.88;;;20.73;;
48534;SDS011;34323;52.022;5.686;2022-08-11T06:22:04;80.13;;;21.83;;
48534;SDS011;34323;52.022;5.686;2022-08-11T06:24:35;53.08;;;17.90;;
48534;SDS011;34323;52.022;5.686;2022-08-11T06:27:03;31.80;;;11.63;;
48534;SDS011;34323;52.022;5.686;2022-08-11T06:29:31;19.17;;;7.13;;
48534;SDS011;34323;52.022;5.686;2022-08-11T06:32:00;17.17;;;5.22;;
48534;SDS011;34323;52.022;5.686;2022-08-11T06:34:32;27.95;;;4.60;;
48534;SDS011;34323;52.022;5.686;2022-08-11T06:37:23;17.60;;;4.55;;
48534;SDS011;34323;52.022;5.686;2022-08-11T06:40:30;22.65;;;4.43;;
48534;SDS011;34323;52.022;5.686;2022-08-11T06:43:37;6.47;;;3.42;;
48534;SDS011;34323;52.022;5.686;2022-08-11T06:46:02;5.70;;;2.92;;
48534;SDS011;34323;52.022;5.686;2022-08-11T06:48:32;11.32;;;3.42;;
48534;SDS011;34323;52.022;5.686;2022-08-11T06:51:01;12.63;;;3.28;;
48534;SDS011;34323;52.022;5.686;2022-08-11T06:53:50;18.00;;;3.25;;
48534;SDS011;34323;52.022;5.686;2022-08-11T06:56:24;13.45;;;3.85;;
48534;SDS011;34323;52.022;5.686;2022-08-11T06:59:11;15.23;;;4.13;;
48534;SDS011;34323;52.022;5.686;2022-08-11T07:04:50;11.65;;;4.45;;
48534;SDS011;34323;52.022;5.686;2022-08-11T07:14:06;8.10;;;3.75;;
48534;SDS011;34323;52.022;5.686;2022-08-11T07:16:51;10.63;;;3.40;;
48534;SDS011;34323;52.022;5.686;2022-08-11T07:19:23;10.88;;;2.88;;
48534;SDS011;34323;52.022;5.686;2022-08-11T07:22:09;11.85;;;2.85;;
48534;SDS011;34323;52.022;5.686;2022-08-11T07:25:12;9.15;;;3.50;;
48534;SDS011;34323;52.022;5.686;2022-08-11T07:28:05;9.95;;;3.55;;
48534;SDS011;34323;52.022;5.686;2022-08-11T07:30:55;4.18;;;2.40;;
48534;SDS011;34323;52.022;5.686;2022-08-11T07:33:29;12.50;;;4.53;;
48534;SDS011;34323;52.022;5.686;2022-08-11T07:36:04;6.82;;;2.70;;
48534;SDS011;34323;52.022;5.686;2022-08-11T07:38:57;9.52;;;3.03;;
48534;SDS011;34323;52.022;5.686;2022-08-11T07:41:23;6.35;;;2.55;;
48534;SDS011;34323;52.022;5.686;2022-08-11T07:43:50;4.47;;;2.28;;
48534;SDS011;34323;52.022;5.686;2022-08-11T07:46:19;6.60;;;2.60;;
48534;SDS011;34323;52.022;5.686;2022-08-11T07:49:04;3.55;;;1.90;;
48534;SDS011;34323;52.022;5.686;2022-08-11T07:51:52;6.18;;;2.38;;
48534;SDS011;34323;52.022;5.686;2022-08-11T07:54:38;9.57;;;2.50;;
48534;SDS011;34323;52.022;5.686;2022-08-11T07:57:08;6.10;;;2.38;;
48534;SDS011;34323;52.022;5.686;2022-08-11T07:59:56;3.70;;;2.45;;
48534;SDS011;34323;52.022;5.686;2022-08-11T08:02:41;6.78;;;2.30;;
48534;SDS011;34323;52.022;5.686;2022-08-11T08:05:26;6.68;;;1.90;;
48534;SDS011;34323;52.022;5.686;2022-08-11T08:08:13;4.97;;;1.77;;
48534;SDS011;34323;52.022;5.686;2022-08-11T08:10:58;11.02;;;2.10;;
48534;SDS011;34323;52.022;5.686;2022-08-11T08:13:44;7.63;;;2.10;;
48534;SDS011;34323;52.022;5.686;2022-08-11T08:16:29;3.55;;;1.67;;
48534;SDS011;34323;52.022;5.686;2022-08-11T08:19:15;4.85;;;1.92;;
48534;SDS011;34323;52.022;5.686;2022-08-11T08:21:43;8.38;;;2.42;;
48534;SDS011;34323;52.022;5.686;2022-08-11T08:24:11;4.63;;;1.88;;
48534;SDS011;34323;52.022;5.686;2022-08-11T08:26:37;4.60;;;2.00;;
48534;SDS011;34323;52.022;5.686;2022-08-11T08:29:22;4.25;;;2.08;;
48534;SDS011;34323;52.022;5.686;2022-08-11T08:32:07;8.10;;;1.77;;
48534;SDS011;34323;52.022;5.686;2022-08-11T08:34:35;7.00;;;2.47;;
48534;SDS011;34323;52.022;5.686;2022-08-11T08:37:02;5.25;;;1.80;;
48534;SDS011;34323;52.022;5.686;2022-08-11T08:39:32;7.18;;;2.03;;
48534;SDS011;34323;52.022;5.686;2022-08-11T08:42:02;7.07;;;1.77;;
48534;SDS011;34323;52.022;5.686;2022-08-11T08:44:35;4.25;;;2.20;;
48534;SDS011;34323;52.022;5.686;2022-08-11T08:47:05;4.32;;;1.77;;
48534;SDS011;34323;52.022;5.686;2022-08-11T08:49:35;2.90;;;2.03;;
48534;SDS011;34323;52.022;5.686;2022-08-11T08:52:06;7.38;;;2.45;;
48534;SDS011;34323;52.022;5.686;2022-08-11T08:54:34;7.57;;;2.00;;
48534;SDS011;34323;52.022;5.686;2022-08-11T08:57:02;9.13;;;2.08;;
48534;SDS011;34323;52.022;5.686;2022-08-11T08:59:30;23.25;;;3.13;;
48534;SDS011;34323;52.022;5.686;2022-08-11T09:02:00;6.53;;;2.50;;
48534;SDS011;34323;52.022;5.686;2022-08-11T09:04:28;7.97;;;2.33;;
48534;SDS011;34323;52.022;5.686;2022-08-11T09:06:55;9.55;;;2.25;;
48534;SDS011;34323;52.022;5.686;2022-08-11T09:09:23;3.47;;;2.13;;
48534;SDS011;34323;52.022;5.686;2022-08-11T09:11:51;11.65;;;2.20;;
48534;SDS011;34323;52.022;5.686;2022-08-11T09:16:47;4.65;;;2.10;;
48534;SDS011;34323;52.022;5.686;2022-08-11T09:19:15;3.40;;;2.22;;
48534;SDS011;34323;52.022;5.686;2022-08-11T09:21:43;8.30;;;2.25;;
48534;SDS011;34323;52.022;5.686;2022-08-11T09:24:32;5.32;;;2.17;;
48534;SDS011;34323;52.022;5.686;2022-08-11T09:27:18;7.68;;;2.28;;
48534;SDS011;34323;52.022;5.686;2022-08-11T09:29:44;3.47;;;2.10;;
48534;SDS011;34323;52.022;5.686;2022-08-11T09:32:10;3.92;;;2.25;;
48534;SDS011;34323;52.022;5.686;2022-08-11T09:34:37;3.25;;;1.92;;
48534;SDS011;34323;52.022;5.686;2022-08-11T09:37:03;5.93;;;1.83;;
48534;SDS011;34323;52.022;5.686;2022-08-11T09:39:49;4.50;;;2.08;;
48534;SDS011;34323;52.022;5.686;2022-08-11T09:42:33;5.07;;;2.17;;
48534;SDS011;34323;52.022;5.686;2022-08-11T09:45:19;4.45;;;2.33;;
48534;SDS011;34323;52.022;5.686;2022-08-11T09:47:45;8.88;;;2.10;;
48534;SDS011;34323;52.022;5.686;2022-08-11T09:50:13;5.70;;;2.15;;
48534;SDS011;34323;52.022;5.686;2022-08-11T09:52:40;8.65;;;2.10;;
48534;SDS011;34323;52.022;5.686;2022-08-11T09:55:09;6.07;;;1.85;;
48534;SDS011;34323;52.022;5.686;2022-08-11T09:57:43;10.23;;;2.13;;
48534;SDS011;34323;52.022;5.686;2022-08-11T10:00:30;5.28;;;2.17;;
48534;SDS011;34323;52.022;5.686;2022-08-11T10:03:05;6.50;;;1.95;;
48534;SDS011;34323;52.022;5.686;2022-08-11T10:05:43;4.97;;;2.00;;
48534;SDS011;34323;52.022;5.686;2022-08-11T10:08:30;4.00;;;2.20;;
48534;SDS011;34323;52.022;5.686;2022-08-11T10:10:59;3.05;;;1.70;;
48534;SDS011;34323;52.022;5.686;2022-08-11T10:13:29;4.40;;;1.90;;
48534;SDS011;34323;52.022;5.686;2022-08-11T10:16:21;5.82;;;1.58;;
48534;SDS011;34323;52.022;5.686;2022-08-11T10:18:50;3.58;;;1.27;;
48534;SDS011;34323;52.022;5.686;2022-08-11T10:21:22;2.38;;;1.67;;
48534;SDS011;34323;52.022;5.686;2022-08-11T10:24:04;3.42;;;1.48;;
48534;SDS011;34323;52.022;5.686;2022-08-11T10:26:51;3.78;;;1.60;;
48534;SDS011;34323;52.022;5.686;2022-08-11T10:29:20;2.83;;;1.60;;
48534;SDS011;34323;52.022;5.686;2022-08-11T10:32:10;6.47;;;1.67;;
48534;SDS011;34323;52.022;5.686;2022-08-11T10:35:08;4.72;;;1.40;;
48534;SDS011;34323;52.022;5.686;2022-08-11T10:37:37;4.50;;;1.42;;
48534;SDS011;34323;52.022;5.686;2022-08-11T10:40:05;3.92;;;1.58;;
48534;SDS011;34323;52.022;5.686;2022-08-11T10:42:33;5.15;;;1.60;;
48534;SDS011;34323;52.022;5.686;2022-08-11T10:45:17;4.80;;;1.52;;
48534;SDS011;34323;52.022;5.686;2022-08-11T10:48:03;3.15;;;1.38;;
48534;SDS011;34323;52.022;5.686;2022-08-11T10:50:30;3.00;;;1.50;;
48534;SDS011;34323;52.022;5.686;2022-08-11T10:53:16;8.35;;;1.77;;
48534;SDS011;34323;52.022;5.686;2022-08-11T10:56:01;7.70;;;1.65;;
48534;SDS011;34323;52.022;5.686;2022-08-11T10:58:47;3.00;;;1.30;;
48534;SDS011;34323;52.022;5.686;2022-08-11T11:03:46;5.70;;;1.30;;
48534;SDS011;34323;52.022;5.686;2022-08-11T11:09:05;6.97;;;1.75;;
48534;SDS011;34323;52.022;5.686;2022-08-11T11:11:36;3.97;;;1.90;;
48534;SDS011;34323;52.022;5.686;2022-08-11T11:14:23;6.05;;;1.90;;
48534;SDS011;34323;52.022;5.686;2022-08-11T11:17:12;7.47;;;1.70;;
48534;SDS011;34323;52.022;5.686;2022-08-11T11:19:58;4.95;;;2.00;;
48534;SDS011;34323;52.022;5.686;2022-08-11T11:22:26;2.50;;;1.48;;
48534;SDS011;34323;52.022;5.686;2022-08-11T11:27:53;6.75;;;1.73;;
48534;SDS011;34323;52.022;5.686;2022-08-11T11:30:44;6.05;;;2.17;;
48534;SDS011;34323;52.022;5.686;2022-08-11T11:39:07;4.55;;;2.22;;
48534;SDS011;34323;52.022;5.686;2022-08-11T11:41:33;3.25;;;1.65;;
48534;SDS011;34323;52.022;5.686;2022-08-11T11:44:00;3.20;;;1.90;;
48534;SDS011;34323;52.022;5.686;2022-08-11T11:46:26;4.75;;;1.50;;
48534;SDS011;34323;52.022;5.686;2022-08-11T11:48:54;2.67;;;1.63;;
48534;SDS011;34323;52.022;5.686;2022-08-11T11:51:21;5.88;;;2.10;;
48534;SDS011;34323;52.022;5.686;2022-08-11T11:53:48;5.72;;;2.10;;
48534;SDS011;34323;52.022;5.686;2022-08-11T11:56:14;2.38;;;1.83;;
48534;SDS011;34323;52.022;5.686;2022-08-11T11:58:40;3.88;;;1.73;;
48534;SDS011;34323;52.022;5.686;2022-08-11T12:01:25;5.13;;;2.05;;
48534;SDS011;34323;52.022;5.686;2022-08-11T12:03:52;5.22;;;2.15;;
48534;SDS011;34323;52.022;5.686;2022-08-11T12:06:21;6.20;;;1.85;;
48534;SDS011;34323;52.022;5.686;2022-08-11T12:08:50;2.22;;;1.67;;
48534;SDS011;34323;52.022;5.686;2022-08-11T12:11:22;2.53;;;1.60;;
48534;SDS011;34323;52.022;5.686;2022-08-11T12:14:08;4.55;;;1.75;;
48534;SDS011;34323;52.022;5.686;2022-08-11T12:16:36;4.60;;;1.45;;
48534;SDS011;34323;52.022;5.686;2022-08-11T12:19:14;4.57;;;1.73;;
48534;SDS011;34323;52.022;5.686;2022-08-11T12:21:46;4.90;;;1.80;;
48534;SDS011;34323;52.022;5.686;2022-08-11T12:24:31;6.22;;;1.75;;
48534;SDS011;34323;52.022;5.686;2022-08-11T12:27:17;6.82;;;1.75;;
48534;SDS011;34323;52.022;5.686;2022-08-11T12:29:59;6.15;;;1.80;;
48534;SDS011;34323;52.022;5.686;2022-08-11T12:32:37;3.65;;;2.00;;
48534;SDS011;34323;52.022;5.686;2022-08-11T12:35:04;5.43;;;2.15;;
48534;SDS011;34323;52.022;5.686;2022-08-11T12:37:36;4.47;;;1.65;;
48534;SDS011;34323;52.022;5.686;2022-08-11T12:40:13;3.60;;;1.80;;
48534;SDS011;34323;52.022;5.686;2022-08-11T12:43:00;6.10;;;1.55;;
48534;SDS011;34323;52.022;5.686;2022-08-11T12:45:46;3.70;;;1.52;;
48534;SDS011;34323;52.022;5.686;2022-08-11T12:48:17;5.72;;;1.80;;
48534;SDS011;34323;52.022;5.686;2022-08-11T12:51:08;5.35;;;1.90;;
48534;SDS011;34323;52.022;5.686;2022-08-11T12:56:30;4.47;;;1.80;;
48534;SDS011;34323;52.022;5.686;2022-08-11T12:59:20;3.28;;;1.88;;
48534;SDS011;34323;52.022;5.686;2022-08-11T13:02:06;6.13;;;1.90;;
48534;SDS011;34323;52.022;5.686;2022-08-11T13:04:53;3.88;;;1.50;;
48534;SDS011;34323;52.022;5.686;2022-08-11T13:07:25;2.28;;;1.60;;
48534;SDS011;34323;52.022;5.686;2022-08-11T13:09:52;10.90;;;1.42;;
48534;SDS011;34323;52.022;5.686;2022-08-11T13:12:19;2.58;;;1.42;;
48534;SDS011;34323;52.022;5.686;2022-08-11T13:15:09;9.93;;;1.85;;
48534;SDS011;34323;52.022;5.686;2022-08-11T13:17:36;2.53;;;1.58;;
48534;SDS011;34323;52.022;5.686;2022-08-11T13:20:03;5.53;;;1.70;;
48534;SDS011;34323;52.022;5.686;2022-08-11T13:22:32;2.47;;;1.50;;
48534;SDS011;34323;52.022;5.686;2022-08-11T13:25:02;2.78;;;1.60;;
48534;SDS011;34323;52.022;5.686;2022-08-11T13:27:28;3.15;;;1.67;;
48534;SDS011;34323;52.022;5.686;2022-08-11T13:29:54;4.30;;;1.73;;
48534;SDS011;34323;52.022;5.686;2022-08-11T13:32:41;3.22;;;1.73;;
48534;SDS011;34323;52.022;5.686;2022-08-11T13:35:09;4.07;;;1.70;;
48534;SDS011;34323;52.022;5.686;2022-08-11T13:37:39;5.03;;;1.45;;
48534;SDS011;34323;52.022;5.686;2022-08-11T13:40:07;10.52;;;2.38;;
48534;SDS011;34323;52.022;5.686;2022-08-11T13:42:34;10.38;;;2.28;;
48534;SDS011;34323;52.022;5.686;2022-08-11T13:45:00;6.07;;;1.70;;
48534;SDS011;34323;52.022;5.686;2022-08-11T13:47:26;8.05;;;1.98;;
48534;SDS011;34323;52.022;5.686;2022-08-11T13:49:52;3.35;;;1.52;;
48534;SDS011;34323;52.022;5.686;2022-08-11T13:52:19;4.80;;;1.90;;
48534;SDS011;34323;52.022;5.686;2022-08-11T13:54:46;2.63;;;1.52;;
48534;SDS011;34323;52.022;5.686;2022-08-11T13:57:14;2.75;;;1.70;;
48534;SDS011;34323;52.022;5.686;2022-08-11T13:59:42;6.40;;;2.22;;
48534;SDS011;34323;52.022;5.686;2022-08-11T14:02:14;4.60;;;1.83;;
48534;SDS011;34323;52.022;5.686;2022-08-11T14:04:46;7.32;;;1.83;;
48534;SDS011;34323;52.022;5.686;2022-08-11T14:07:17;5.35;;;1.40;;
48534;SDS011;34323;52.022;5.686;2022-08-11T14:09:46;6.38;;;2.00;;
48534;SDS011;34323;52.022;5.686;2022-08-11T14:12:32;4.60;;;1.92;;
48534;SDS011;34323;52.022;5.686;2022-08-11T14:15:20;7.20;;;1.85;;
48534;SDS011;34323;52.022;5.686;2022-08-11T14:18:00;3.20;;;1.65;;
48534;SDS011;34323;52.022;5.686;2022-08-11T14:20:33;5.03;;;2.00;;
48534;SDS011;34323;52.022;5.686;2022-08-11T14:23:21;8.75;;;1.73;;
48534;SDS011;34323;52.022;5.686;2022-08-11T14:28:35;1.88;;;1.70;;
48534;SDS011;34323;52.022;5.686;2022-08-11T14:31:02;5.90;;;1.60;;
48534;SDS011;34323;52.022;5.686;2022-08-11T14:33:31;2.15;;;1.70;;
48534;SDS011;34323;52.022;5.686;2022-08-11T14:35:58;3.00;;;1.63;;
48534;SDS011;34323;52.022;5.686;2022-08-11T14:38:26;6.35;;;1.80;;
48534;SDS011;34323;52.022;5.686;2022-08-11T14:40:52;5.22;;;1.90;;
48534;SDS011;34323;52.022;5.686;2022-08-11T14:43:36;7.32;;;1.67;;
48534;SDS011;34323;52.022;5.686;2022-08-11T14:46:21;6.43;;;1.83;;
48534;SDS011;34323;52.022;5.686;2022-08-11T14:49:05;3.78;;;1.75;;
48534;SDS011;34323;52.022;5.686;2022-08-11T14:51:31;4.00;;;1.88;;
48534;SDS011;34323;52.022;5.686;2022-08-11T14:53:58;6.15;;;1.92;;
48534;SDS011;34323;52.022;5.686;2022-08-11T14:56:44;2.13;;;1.80;;
48534;SDS011;34323;52.022;5.686;2022-08-11T14:59:10;9.10;;;2.00;;
48534;SDS011;34323;52.022;5.686;2022-08-11T15:01:37;2.17;;;1.67;;
48534;SDS011;34323;52.022;5.686;2022-08-11T15:04:21;4.60;;;2.00;;
48534;SDS011;34323;52.022;5.686;2022-08-11T15:06:47;4.93;;;1.98;;
48534;SDS011;34323;52.022;5.686;2022-08-11T15:09:14;4.50;;;1.75;;
48534;SDS011;34323;52.022;5.686;2022-08-11T15:11:40;3.65;;;1.80;;
48534;SDS011;34323;52.022;5.686;2022-08-11T15:14:26;3.08;;;1.90;;
48534;SDS011;34323;52.022;5.686;2022-08-11T15:17:11;3.28;;;1.80;;
48534;SDS011;34323;52.022;5.686;2022-08-11T15:19:39;3.55;;;2.30;;
48534;SDS011;34323;52.022;5.686;2022-08-11T15:22:27;8.60;;;2.00;;
48534;SDS011;34323;52.022;5.686;2022-08-11T15:25:11;4.82;;;2.15;;
48534;SDS011;34323;52.022;5.686;2022-08-11T15:27:38;6.07;;;2.30;;
48534;SDS011;34323;52.022;5.686;2022-08-11T15:30:26;3.35;;;2.13;;
48534;SDS011;34323;52.022;5.686;2022-08-11T15:33:12;3.90;;;1.65;;
48534;SDS011;34323;52.022;5.686;2022-08-11T15:35:59;5.43;;;1.80;;
48534;SDS011;34323;52.022;5.686;2022-08-11T15:38:50;3.33;;;1.63;;
48534;SDS011;34323;52.022;5.686;2022-08-11T15:41:24;4.22;;;2.00;;
48534;SDS011;34323;52.022;5.686;2022-08-11T15:44:14;2.03;;;1.42;;
48534;SDS011;34323;52.022;5.686;2022-08-11T15:47:00;1.95;;;1.75;;
48534;SDS011;34323;52.022;5.686;2022-08-11T15:49:28;2.30;;;1.73;;
48534;SDS011;34323;52.022;5.686;2022-08-11T15:51:59;7.28;;;1.85;;
48534;SDS011;34323;52.022;5.686;2022-08-11T15:54:31;10.05;;;1.80;;
48534;SDS011;34323;52.022;5.686;2022-08-11T15:56:58;4.20;;;1.73;;
48534;SDS011;34323;52.022;5.686;2022-08-11T15:59:26;3.70;;;1.65;;
48534;SDS011;34323;52.022;5.686;2022-08-11T16:02:14;3.58;;;1.92;;
48534;SDS011;34323;52.022;5.686;2022-08-11T16:04:49;7.60;;;2.40;;
48534;SDS011;34323;52.022;5.686;2022-08-11T16:07:17;5.10;;;2.20;;
48534;SDS011;34323;52.022;5.686;2022-08-11T16:12:38;3.88;;;2.08;;
48534;SDS011;34323;52.022;5.686;2022-08-11T16:15:08;2.72;;;1.55;;
48534;SDS011;34323;52.022;5.686;2022-08-11T16:18:00;4.93;;;1.63;;
48534;SDS011;34323;52.022;5.686;2022-08-11T16:20:29;7.85;;;1.50;;
48534;SDS011;34323;52.022;5.686;2022-08-11T16:22:58;16.20;;;2.10;;
48534;SDS011;34323;52.022;5.686;2022-08-11T16:25:27;3.85;;;1.98;;
48534;SDS011;34323;52.022;5.686;2022-08-11T16:27:55;2.70;;;1.70;;
48534;SDS011;34323;52.022;5.686;2022-08-11T16:30:26;2.80;;;1.67;;
48534;SDS011;34323;52.022;5.686;2022-08-11T16:32:53;8.27;;;1.90;;
48534;SDS011;34323;52.022;5.686;2022-08-11T16:35:21;4.78;;;2.33;;
48534;SDS011;34323;52.022;5.686;2022-08-11T16:38:07;2.85;;;1.65;;
48534;SDS011;34323;52.022;5.686;2022-08-11T16:40:54;3.35;;;2.17;;
48534;SDS011;34323;52.022;5.686;2022-08-11T16:43:22;5.35;;;1.40;;
48534;SDS011;34323;52.022;5.686;2022-08-11T16:46:08;4.97;;;1.85;;
48534;SDS011;34323;52.022;5.686;2022-08-11T16:48:56;4.03;;;1.77;;
48534;SDS011;34323;52.022;5.686;2022-08-11T16:51:24;4.28;;;1.48;;
48534;SDS011;34323;52.022;5.686;2022-08-11T16:53:49;1.60;;;1.50;;
48534;SDS011;34323;52.022;5.686;2022-08-11T16:56:19;8.63;;;1.80;;
48534;SDS011;34323;52.022;5.686;2022-08-11T16:58:54;1.88;;;1.45;;
48534;SDS011;34323;52.022;5.686;2022-08-11T17:02:25;2.47;;;1.55;;
48534;SDS011;34323;52.022;5.686;2022-08-11T17:04:30;4.63;;;1.48;;
48534;SDS011;34323;52.022;5.686;2022-08-11T17:07:23;5.15;;;1.73;;
48534;SDS011;34323;52.022;5.686;2022-08-11T17:10:23;9.75;;;1.80;;
48534;SDS011;34323;52.022;5.686;2022-08-11T17:13:10;5.30;;;1.73;;
48534;SDS011;34323;52.022;5.686;2022-08-11T17:15:40;5.38;;;1.70;;
48534;SDS011;34323;52.022;5.686;2022-08-11T17:18:30;11.32;;;2.50;;
48534;SDS011;34323;52.022;5.686;2022-08-11T17:26:59;5.15;;;1.75;;
48534;SDS011;34323;52.022;5.686;2022-08-11T17:32:02;2.47;;;1.50;;
48534;SDS011;34323;52.022;5.686;2022-08-11T17:34:53;7.20;;;1.77;;
48534;SDS011;34323;52.022;5.686;2022-08-11T17:37:49;4.00;;;1.45;;
48534;SDS011;34323;52.022;5.686;2022-08-11T17:40:18;2.88;;;1.70;;
48534;SDS011;34323;52.022;5.686;2022-08-11T17:42:48;5.13;;;1.70;;
48534;SDS011;34323;52.022;5.686;2022-08-11T17:45:36;9.20;;;1.65;;
48534;SDS011;34323;52.022;5.686;2022-08-11T17:48:23;5.55;;;1.60;;
48534;SDS011;34323;52.022;5.686;2022-08-11T17:51:33;2.72;;;1.67;;
48534;SDS011;34323;52.022;5.686;2022-08-11T17:54:02;8.63;;;1.70;;
48534;SDS011;34323;52.022;5.686;2022-08-11T17:56:48;5.05;;;1.40;;
48534;SDS011;34323;52.022;5.686;2022-08-11T17:59:35;2.25;;;1.55;;
48534;SDS011;34323;52.022;5.686;2022-08-11T18:02:16;2.60;;;1.40;;
48534;SDS011;34323;52.022;5.686;2022-08-11T18:05:04;2.05;;;1.15;;
48534;SDS011;34323;52.022;5.686;2022-08-11T18:07:30;3.03;;;1.33;;
48534;SDS011;34323;52.022;5.686;2022-08-11T18:10:16;6.80;;;1.60;;
48534;SDS011;34323;52.022;5.686;2022-08-11T18:13:00;6.95;;;1.92;;
48534;SDS011;34323;52.022;5.686;2022-08-11T18:15:47;7.32;;;1.80;;
48534;SDS011;34323;52.022;5.686;2022-08-11T18:18:31;7.78;;;1.38;;
48534;SDS011;34323;52.022;5.686;2022-08-11T18:21:16;4.10;;;1.33;;
48534;SDS011;34323;52.022;5.686;2022-08-11T18:24:04;10.55;;;1.75;;
48534;SDS011;34323;52.022;5.686;2022-08-11T18:26:53;5.13;;;1.50;;
48534;SDS011;34323;52.022;5.686;2022-08-11T18:29:39;4.13;;;1.80;;
48534;SDS011;34323;52.022;5.686;2022-08-11T18:32:27;4.53;;;1.75;;
48534;SDS011;34323;52.022;5.686;2022-08-11T18:35:14;6.28;;;1.33;;
48534;SDS011;34323;52.022;5.686;2022-08-11T18:38:00;2.72;;;1.58;;
48534;SDS011;34323;52.022;5.686;2022-08-11T18:40:47;6.25;;;1.77;;
48534;SDS011;34323;52.022;5.686;2022-08-11T18:43:34;3.60;;;1.77;;
48534;SDS011;34323;52.022;5.686;2022-08-11T18:46:20;2.28;;;1.42;;
48534;SDS011;34323;52.022;5.686;2022-08-11T18:49:08;4.43;;;1.73;;
48534;SDS011;34323;52.022;5.686;2022-08-11T18:51:57;4.25;;;1.75;;
48534;SDS011;34323;52.022;5.686;2022-08-11T18:54:43;7.43;;;1.65;;
48534;SDS011;34323;52.022;5.686;2022-08-11T18:57:31;7.72;;;1.98;;